createdAt,value
2023-05-06T03:11:17.264Z,14.936974885559994
2023-05-06T03:14:16.888Z,14.942113366067588
2023-05-06T03:17:16.854Z,14.931194095336831
2023-05-06T03:21:16.317Z,14.830993789994682
2023-05-06T03:24:16.781Z,14.832278408593629
2023-05-06T03:27:16.598Z,14.863109260425336
2023-05-06T03:31:15.797Z,14.773185971868589
2023-05-06T03:34:16.307Z,14.768047500928878
2023-05-06T03:37:16.291Z,14.794382167571257
2023-05-06T03:41:16.199Z,14.777039825264364
2023-05-06T03:44:16.509Z,14.734647446914824
2023-05-06T03:47:17.592Z,14.746209002682008
2023-05-06T03:51:15.983Z,14.697393555020971
2023-05-06T03:54:16.257Z,14.723728201154245
2023-05-06T03:57:16.299Z,14.679408923030133
2023-05-06T04:01:18.212Z,14.662708910802394
2023-05-06T04:04:16.990Z,14.676197381978364
2023-05-06T04:07:16.553Z,14.646008901648747
2023-05-06T04:11:16.400Z,14.633805050749743
2023-05-06T04:14:16.910Z,14.665278143252726
2023-05-06T04:17:16.494Z,14.658212754189389
2023-05-06T04:21:16.244Z,14.573428128348406
2023-05-06T04:24:16.495Z,14.567005053861886
2023-05-06T04:27:16.564Z,14.560581979830113
2023-05-06T04:31:16.723Z,14.54773583313081
2023-05-06T04:34:17.138Z,14.554801213590327
2023-05-06T04:37:16.782Z,14.584989663570104
2023-05-06T04:41:16.040Z,14.552874291592252
2023-05-06T04:44:16.341Z,14.54195506770957
2023-05-06T04:47:16.323Z,14.509197403946837
2023-05-06T04:51:16.071Z,14.507270482917374
2023-05-06T04:54:16.353Z,14.522685852299038
2023-05-06T04:57:16.321Z,14.498920492262641
2023-05-06T05:01:19.605Z,14.552231984268655
2023-05-06T05:04:17.058Z,14.538101224300044
2023-05-06T05:07:16.742Z,14.577924280759543
2023-05-06T05:11:17.012Z,14.56572043901915
2023-05-06T05:14:16.351Z,14.581135818332495
2023-05-06T05:17:16.548Z,14.590770431733471
2023-05-06T05:21:16.533Z,14.554801213590327
2023-05-06T05:24:16.946Z,14.558655057709256
2023-05-06T05:27:16.897Z,14.573428128348406
2023-05-06T05:31:16.804Z,14.578566588265039
2023-05-06T05:34:16.841Z,14.61967427807549
2023-05-06T05:37:16.841Z,14.63637428238153
2023-05-06T05:41:17.570Z,14.640870437912236
2023-05-06T05:44:16.710Z,14.69546662999428
2023-05-06T05:47:16.660Z,14.726297435332617
2023-05-06T05:51:16.374Z,14.726939743888579
2023-05-06T05:54:16.786Z,14.71858973301578
2023-05-06T05:57:16.754Z,14.707028180768338
2023-05-06T06:01:16.830Z,14.725655126781202
2023-05-06T06:04:17.001Z,14.738501298673508
2023-05-06T06:07:16.878Z,14.750062854931821
2023-05-06T06:11:17.090Z,14.823928388025616
2023-05-06T06:14:17.110Z,14.866320808093679
2023-05-06T06:17:17.054Z,14.952390327955891
2023-05-06T06:21:16.228Z,14.987075082923639
2023-05-06T06:24:16.530Z,15.047452280610832
2023-05-06T06:27:16.385Z,15.117464187814402
2023-05-06T06:31:15.952Z,15.203533945936943
2023-05-06T06:34:16.216Z,15.29988078696515
2023-05-06T06:37:16.080Z,15.366681323474404
2023-05-06T06:41:17.067Z,15.416139444694362
2023-05-06T06:44:17.210Z,15.520194281269596
2023-05-06T06:47:17.107Z,15.619110718045794
2023-05-06T06:51:16.438Z,15.745004520830207
2023-05-06T06:54:16.849Z,15.848417418090685
2023-05-06T06:57:16.820Z,15.922926162468503
2023-05-06T07:01:16.339Z,16.05267429442356
2023-05-06T07:04:16.763Z,16.101490471317447
2023-05-06T07:07:16.861Z,16.16251072937166
2023-05-06T07:11:16.521Z,16.244727563019932
2023-05-06T07:14:16.770Z,16.304463277949615
2023-05-06T07:17:17.053Z,16.376403115876382
2023-05-06T07:21:16.726Z,16.484955300725506
2023-05-06T07:24:17.125Z,16.592222971917728
2023-05-06T07:27:16.988Z,16.73546083838237
2023-05-06T07:31:16.506Z,16.832451629731803
2023-05-06T07:34:16.961Z,16.909530478256055
2023-05-06T07:37:16.680Z,16.99752891037724
2023-05-06T07:41:16.727Z,17.059192096153218
2023-05-06T07:44:17.071Z,17.145263696375423
2023-05-06T07:47:26.426Z,17.199219069494667
2023-05-06T07:51:16.366Z,17.305845258352292
2023-05-06T07:54:16.405Z,17.395128729754653
2023-05-06T07:57:16.521Z,17.43752235125612
2023-05-06T08:01:16.556Z,17.508820759362514
2023-05-06T08:04:16.535Z,17.601958403902607
2023-05-06T08:07:16.660Z,17.639213488489624
2023-05-06T08:11:19.271Z,17.712439044157872
2023-05-06T08:14:16.788Z,17.776029706237114
2023-05-06T08:17:17.052Z,17.846043719066436
2023-05-06T08:21:16.509Z,17.954597662296237
2023-05-06T08:24:16.951Z,17.99056822834691
2023-05-06T08:27:16.940Z,18.056728413855673
2023-05-06T08:31:16.102Z,18.15500528332932
2023-05-06T08:34:18.675Z,18.2230925886558
2023-05-06T08:37:16.308Z,18.303384287949665
2023-05-06T08:41:18.826Z,18.440201507241817
2023-05-06T08:44:22.308Z,18.489661303955653
2023-05-06T08:47:17.219Z,18.554537182080914
2023-05-06T08:51:17.800Z,18.633544502245787
2023-05-06T08:54:17.669Z,18.735033681130517
2023-05-06T08:57:17.518Z,18.78706298774059
2023-05-06T09:01:16.814Z,18.872493889235194
2023-05-06T09:04:18.193Z,18.97077164232842
2023-05-06T09:07:16.549Z,19.109516886744768
2023-05-06T09:11:21.305Z,19.183385969164373
2023-05-06T09:14:17.526Z,19.29643789871043
2023-05-06T09:17:17.982Z,19.38122693831101
2023-05-06T09:21:16.653Z,19.48914037603536
2023-05-06T09:24:17.941Z,19.605404401975193
2023-05-06T09:27:16.985Z,19.744792960939595
2023-05-06T09:31:16.185Z,19.854633865635787
2023-05-06T09:34:17.717Z,20.00108861207709
2023-05-06T09:37:16.527Z,20.111572173720287
2023-05-06T09:41:19.619Z,20.250319162620237
2023-05-06T09:44:17.149Z,20.359518330864468
2023-05-06T09:47:16.989Z,20.481564615602203
2023-05-06T09:51:16.896Z,20.607465165564008
2023-05-06T09:54:18.368Z,20.717949465571383
2023-05-06T09:57:18.756Z,20.854770325875506
2023-05-06T10:01:32.742Z,21.0070078636375
2023-05-06T10:04:17.492Z,21.13483620443767
2023-05-06T10:07:20.551Z,21.33589320535257
2023-05-06T10:11:17.095Z,21.452801953856486
2023-05-06T10:14:17.593Z,21.631377146182878
2023-05-06T10:17:18.618Z,21.76113344164414
2023-05-06T10:21:23.329Z,21.908233624775676
2023-05-06T10:24:22.601Z,22.055976406823902
2023-05-06T10:27:21.749Z,22.218493744925308
2023-05-06T10:31:16.153Z,22.379726648623183
2023-05-06T10:34:19.587Z,22.49984855992161
2023-05-06T10:37:16.750Z,22.594918420632986
2023-05-06T10:41:18.170Z,22.741377590165303
2023-05-06T10:44:16.941Z,22.84158663184071
2023-05-06T10:47:16.880Z,22.94821945156955
2023-05-06T10:51:25.570Z,23.091467352421024
2023-05-06T10:54:24.023Z,23.25719838983241
2023-05-06T10:57:17.296Z,23.33492506591292
2023-05-06T11:01:16.118Z,23.497444694681327
2023-05-06T11:04:18.810Z,23.6149985996738
2023-05-06T11:07:22.735Z,23.729983167737736
2023-05-06T11:12:21.990Z,23.93682728267886
2023-05-06T11:14:26.367Z,24.048600385742976
2023-05-06T11:17:32.804Z,24.193134774864394
2023-05-06T11:21:42.003Z,24.329318498817976
2023-05-06T11:24:28.093Z,24.43852257605986
2023-05-06T11:27:28.906Z,24.52781306628749
2023-05-06T11:31:17.120Z,24.683911040840847
2023-05-06T11:34:23.080Z,24.83872452361975
2023-05-06T11:37:24.367Z,25.034008297696708
2023-05-06T11:41:17.936Z,25.264623558929543
2023-05-06T11:44:25.709Z,25.38539167328572
2023-05-06T11:47:20.299Z,25.481106941920007
2023-05-06T11:51:21.483Z,25.641703257037808
2023-05-06T11:54:19.562Z,25.714935271082503
2023-05-06T11:57:19.489Z,25.885810200349443
2023-05-06T12:01:16.016Z,26.01621496810776
2023-05-06T12:04:16.237Z,26.13569930406529
2023-05-06T12:07:16.542Z,26.229488194115493
2023-05-06T12:11:16.324Z,26.262250089511507
2023-05-06T12:14:17.227Z,26.34704563840205
2023-05-06T12:17:16.750Z,26.47680867722993
2023-05-06T12:21:21.733Z,26.618134970215397
2023-05-06T12:24:26.685Z,26.746613609377892
2023-05-06T12:27:28.952Z,26.763315845829492
2023-05-06T12:31:20.261Z,26.81149539127882
2023-05-06T12:34:34.638Z,26.82498566858849
2023-05-06T12:37:24.183Z,26.86995327410441
2023-05-06T12:41:16.543Z,26.880231587065282
2023-05-06T12:44:32.441Z,26.909139348509143
2023-05-06T12:47:19.194Z,26.99650508350978
2023-05-06T12:51:17.324Z,27.070380586825557
2023-05-06T12:54:28.702Z,27.16738242598449
2023-05-06T12:57:16.860Z,27.239973274112344
2023-05-06T13:01:16.061Z,27.290722662601276
2023-05-06T13:04:16.434Z,27.370379987843716
2023-05-06T13:07:16.399Z,27.469309343955775
2023-05-06T13:11:16.453Z,27.520701259825092
2023-05-06T13:14:16.810Z,27.58751079396543
2023-05-06T13:17:16.861Z,27.62412757873535
2023-05-06T13:21:15.832Z,27.690937189018587
2023-05-06T13:24:16.354Z,27.78280048346869
2023-05-06T13:27:16.288Z,27.869524657968213
2023-05-06T13:31:15.918Z,27.934407242716496
2023-05-06T13:34:16.290Z,28.00314428904421
2023-05-06T13:37:16.114Z,28.09500789953463
2023-05-06T13:41:16.487Z,28.154751416400906
2023-05-06T13:44:16.096Z,28.215137376642087
2023-05-06T13:47:16.261Z,28.319849296564733
2023-05-06T13:51:15.633Z,28.412355633087373
2023-05-06T13:54:16.323Z,28.49522597296309
2023-05-06T13:57:15.974Z,28.522849436404886
2023-05-06T14:01:15.733Z,28.473384170612917
2023-05-06T14:04:16.222Z,28.484305071130894
2023-05-06T14:07:16.157Z,28.483020259237037
2023-05-06T14:11:16.216Z,28.428415770562424
2023-05-06T14:14:16.496Z,28.118134417526836
2023-05-06T14:17:16.893Z,28.119419224254763
2023-05-06T14:21:16.038Z,28.261390479747206
2023-05-06T14:24:16.147Z,28.310855629987874
2023-05-06T14:27:16.278Z,28.369314478669548
2023-05-06T14:31:15.783Z,28.452827184967827
2023-05-06T14:34:16.166Z,28.475953794145973
2023-05-06T14:37:16.483Z,28.442548693891514
2023-05-06T14:41:16.380Z,28.50229243955482
2023-05-06T14:44:16.721Z,28.504862063906423
2023-05-06T14:47:17.090Z,28.56460585059249
2023-05-06T14:51:16.235Z,28.488801912902638
2023-05-06T14:54:16.690Z,28.490729130873024
2023-05-06T14:57:16.634Z,28.49972281527598
2023-05-06T15:01:16.267Z,28.4881595069216
2023-05-06T15:04:16.714Z,28.476596200040603
2023-05-06T15:07:16.778Z,28.455396807918806
2023-05-06T15:11:15.632Z,28.404004362723573
2023-05-06T15:14:16.154Z,28.366102453039
2023-05-06T15:17:15.909Z,28.362890427522142
2023-05-06T15:21:17.555Z,28.36353283261642
2023-05-06T15:24:16.034Z,28.337194227479994
2023-05-06T15:27:16.037Z,28.274880972593472
2023-05-06T15:31:16.433Z,28.253039223275938
2023-05-06T15:34:16.703Z,28.202289296629896
2023-05-06T15:37:19.351Z,28.217706992862805
2023-05-06T15:41:15.965Z,28.241475946353695
2023-05-06T15:44:16.638Z,28.16824189339468
2023-05-06T15:47:16.473Z,28.1264856615835
2023-05-06T15:51:16.048Z,28.041688449954744
2023-05-06T15:54:18.239Z,28.12327364454768
2023-05-06T15:57:16.487Z,28.278092994995312
2023-05-06T16:01:16.605Z,28.350684731594903
2023-05-06T16:04:16.671Z,28.30443158297867
2023-05-06T16:07:16.647Z,28.238263925247885
2023-05-06T16:11:15.557Z,28.233124691715055
2023-05-06T16:14:16.295Z,28.21256776049413
2023-05-06T16:17:16.128Z,28.22605824608263
2023-05-06T16:21:15.951Z,28.14640016974308
2023-05-06T16:24:16.540Z,28.104001544720177
2023-05-06T16:27:16.346Z,28.109783174238693
2023-05-06T16:31:15.884Z,28.030767602701324
2023-05-06T16:34:15.906Z,28.01791954879163
2023-05-06T16:37:16.051Z,28.017277146143897
2023-05-06T16:41:16.655Z,27.91320797725093
2023-05-06T16:44:16.759Z,27.88751190453804
2023-05-06T16:47:17.017Z,27.852179816438092
2023-05-06T16:51:16.532Z,27.76674046024891
2023-05-06T16:54:16.860Z,27.739117226959298
2023-05-06T16:57:17.349Z,27.667168379723535
2023-05-06T17:01:16.466Z,27.55924521582647
2023-05-06T17:04:16.855Z,27.520701259825092
2023-05-06T17:07:16.951Z,27.448110187138447
2023-05-06T17:11:15.762Z,27.334405703269386
2023-05-06T17:14:16.072Z,27.263099574207807
2023-05-06T17:17:16.178Z,27.172521599163247
2023-05-06T17:21:16.722Z,27.04725433584281
2023-05-06T17:24:25.959Z,26.962458132661776
2023-05-06T17:27:16.934Z,26.869310879583008
2023-05-06T17:31:16.260Z,26.66824161785189
2023-05-06T17:34:16.073Z,26.590512086553737
2023-05-06T17:37:15.960Z,26.522418502275922
2023-05-06T17:41:16.258Z,26.378522794140828
2023-05-06T17:44:18.216Z,26.314283712392445
2023-05-06T17:47:17.422Z,26.172315503029676
2023-05-06T17:51:17.380Z,26.04255289961329
2023-05-06T17:54:17.005Z,25.9616119637285
2023-05-06T17:57:16.745Z,25.83120727443684
2023-05-06T18:01:16.385Z,25.732279704117627
2023-05-06T18:04:16.814Z,25.623716455611067
2023-05-06T18:07:17.720Z,25.50551756350069
2023-05-06T18:11:16.673Z,25.313444692187566
2023-05-06T18:14:17.946Z,25.13678940022364
2023-05-06T18:17:17.831Z,25.068054525014396
2023-05-06T18:21:16.198Z,24.95435302331025
2023-05-06T18:24:17.728Z,24.869558775797486
2023-05-06T18:27:17.112Z,24.756499902368525
2023-05-06T18:31:15.497Z,24.626739323523726
2023-05-06T18:34:15.880Z,24.54772678472373
2023-05-06T18:37:15.919Z,24.44366159469728
2023-05-06T18:41:16.472Z,24.315828592513935
2023-05-06T18:44:16.861Z,24.236173948552825
2023-05-06T18:47:18.268Z,24.113480238605643
2023-05-06T18:51:17.091Z,23.97986633479968
2023-05-06T18:54:17.500Z,23.894430624429152
2023-05-06T18:57:17.134Z,23.809637367356117
2023-05-06T19:01:16.038Z,23.664461217240024
2023-05-06T19:04:16.360Z,23.566820751341584
2023-05-06T19:07:16.813Z,23.45890246390045
2023-05-06T19:11:27.619Z,23.357408001160728
2023-05-06T19:14:17.264Z,23.271330507803942
2023-05-06T19:17:16.894Z,23.155061784474036
2023-05-06T19:21:16.095Z,23.058706601787797
2023-05-06T19:24:16.489Z,22.969417557170164
2023-05-06T19:27:17.592Z,22.93087555067068
2023-05-06T19:31:17.380Z,22.833235874140883
2023-05-06T19:34:16.907Z,22.73945049429458
2023-05-06T19:37:17.787Z,22.68677655634274
2023-05-06T19:41:16.108Z,22.580786408008226
2023-05-06T19:44:16.442Z,22.508199286939636
2023-05-06T19:47:16.634Z,22.4388240396569
2023-05-06T19:51:16.513Z,22.33090709375683
2023-05-06T19:54:16.793Z,22.286584099587436
2023-05-06T19:57:17.890Z,22.21977846812524
2023-05-06T20:01:17.197Z,22.119570113154715
2023-05-06T20:04:16.591Z,22.024500750482638
2023-05-06T20:07:17.406Z,21.961549470555564
2023-05-06T20:11:16.463Z,21.8382164773001
2023-05-06T20:14:16.877Z,21.74507448412478
2023-05-06T20:17:17.213Z,21.679553966899768
2023-05-06T20:21:16.729Z,21.45087488535246
2023-05-06T20:24:17.012Z,21.442524255641274
2023-05-06T20:27:17.084Z,21.417472371118855
2023-05-06T20:31:16.230Z,21.32433080983983
2023-05-06T20:34:18.938Z,21.276796532655954
2023-05-06T20:37:16.712Z,21.194575139019527
2023-05-06T20:41:16.299Z,21.07445495568827
2023-05-06T20:44:16.671Z,21.03205963483233
2023-05-06T20:47:16.867Z,20.957546694664416
2023-05-06T20:51:16.584Z,20.87789499870305
2023-05-06T20:54:16.619Z,20.800170427306966
2023-05-06T20:57:16.879Z,20.734650592393972
2023-05-06T21:01:16.329Z,20.615173368175693
2023-05-06T21:04:17.701Z,20.545157218493113
2023-05-06T21:07:16.066Z,20.483491663519818
2023-05-06T21:11:15.776Z,20.383285226073347
2023-05-06T21:14:16.013Z,20.328043263007203
2023-05-06T21:17:16.161Z,20.288860030523303
2023-05-06T21:21:16.325Z,20.18287268318236
2023-05-06T21:24:16.846Z,20.144331860299282
2023-05-06T21:27:16.817Z,20.070461995532334
2023-05-06T21:31:16.477Z,19.98695700343169
2023-05-06T21:34:16.749Z,19.88867814964069
2023-05-06T21:37:16.710Z,19.870692488574786
2023-05-06T21:41:16.635Z,19.74800468141193
2023-05-06T21:44:16.162Z,19.69725951124128
2023-05-06T21:47:16.126Z,19.6722081085828
2023-05-06T21:51:16.660Z,19.63623687583613
2023-05-06T21:54:17.118Z,19.607331431284546
2023-05-06T21:57:16.889Z,19.57392959571589
2023-05-06T22:01:16.967Z,19.475008847125356
2023-05-06T22:04:16.759Z,19.44803047986352
2023-05-06T22:07:16.643Z,19.391504403040745
2023-05-06T22:11:16.250Z,19.314423445943977
2023-05-06T22:14:16.161Z,19.254685749234433
2023-05-06T22:17:15.993Z,19.209721917439403
2023-05-06T22:21:15.710Z,19.130071755813788
2023-05-06T22:24:16.323Z,19.09345839852467
2023-05-06T22:27:16.147Z,19.01830471143048
2023-05-06T22:31:15.825Z,18.930304319339122
2023-05-06T22:34:15.922Z,18.862858821132342
2023-05-06T22:37:16.280Z,18.814041158469717
2023-05-06T22:41:16.686Z,18.740814713724923
2023-05-06T22:44:16.407Z,18.72861031201319
2023-05-06T22:47:16.425Z,18.663091972991605
2023-05-06T22:51:16.681Z,18.598858353213654
2023-05-06T22:54:16.712Z,18.54682915452877
2023-05-06T22:57:19.118Z,18.496726991401466
2023-05-06T23:01:16.688Z,18.415150451660157
2023-05-06T23:04:16.592Z,18.378537382867307
2023-05-06T23:07:16.547Z,18.31623096643052
2023-05-06T23:11:16.018Z,18.230800588704824
2023-05-06T23:14:17.290Z,18.178771601081827
2023-05-06T23:17:16.247Z,18.119676984661783
2023-05-06T23:21:16.128Z,18.068932725190916
2023-05-06T23:24:16.575Z,17.995064550105962
2023-05-06T23:27:16.586Z,17.965517296911276
2023-05-06T23:31:15.514Z,17.877517925923257
2023-05-06T23:34:15.700Z,17.860817325006884
2023-05-06T23:37:17.709Z,17.82163515800057
2023-05-06T23:41:16.453Z,17.732993596722736
2023-05-06T23:44:16.965Z,17.70473108814658
2023-05-06T23:47:16.877Z,17.67389927064978
2023-05-06T23:51:15.609Z,17.629578551354008
2023-05-06T23:54:15.959Z,17.607097035349945
2023-05-06T23:57:16.038Z,17.54479114868018
